Time;durP1;ratioP1;P1;durP2;ratioP2;P2;SDS_P1;SDS_P2;PMS_P1;PMS_P2;Temp;Humidity;BMP_temperature;BMP_pressure;BME280_temperature;BME280_humidity;BME280_pressure;Samples;Min_cycle;Max_cycle;Signal;HPM_P1;HPM_P2
2023/01/19 00:00:29;;;;;;;20.05;12.52;;;;;;;-1.18;100.00;99215.63;5037596;28;20045;-80
2023/01/19 00:02:56;;;;;;;20.88;11.88;;;;;;;-0.74;100.00;99306.59;5035928;28;20057;-81
2023/01/19 00:05:23;;;;;;;19.85;11.70;;;;;;;-1.09;100.00;99255.25;5035826;28;20041;-81
2023/01/19 00:07:49;;;;;;;19.58;11.90;;;;;;;-1.20;100.00;99252.00;5036914;28;20053;-82
2023/01/19 00:10:16;;;;;;;19.50;11.70;;;;;;;-0.89;100.00;99316.41;5037677;28;20049;-81
2023/01/19 00:12:43;;;;;;;20.90;11.88;;;;;;;-2.34;100.00;99081.81;5038687;28;20048;-81
2023/01/19 00:15:10;;;;;;;19.73;11.95;;;;;;;-2.68;100.00;99022.78;5038112;28;20068;-82
2023/01/19 00:17:39;;;;;;;20.90;11.05;;;;;;;-1.29;100.00;99241.81;5036395;28;20441;-80
2023/01/19 00:20:08;;;;;;;19.95;11.23;;;;;;;-1.61;100.00;99192.16;5036058;28;20049;-79
2023/01/19 00:22:34;;;;;;;23.80;11.65;;;;;;;-0.86;100.00;99311.16;5035428;28;20048;-80
2023/01/19 00:25:01;;;;;;;20.02;11.52;;;;;;;-1.12;100.00;99251.88;5036245;28;20051;-82
2023/01/19 00:27:29;;;;;;;19.90;11.48;;;;;;;-1.33;100.00;99232.34;5035599;28;20059;-83
2023/01/19 00:29:56;;;;;;;19.40;10.85;;;;;;;-2.62;100.00;99020.06;5034961;28;20103;-83
2023/01/19 00:32:22;;;;;;;20.95;10.82;;;;;;;-2.71;100.00;99009.88;5028310;28;20464;-82
2023/01/19 00:34:51;;;;;;;17.85;11.38;;;;;;;-1.38;100.00;99246.28;5034947;28;20471;-83
2023/01/19 00:37:17;;;;;;;22.08;11.90;;;;;;;-2.02;100.00;99133.16;5034343;28;20095;-83
2023/01/19 00:39:44;;;;;;;19.80;11.50;;;;;;;-2.28;100.00;99108.53;5035670;28;20059;-83
2023/01/19 00:44:57;;;;;;;21.67;11.35;;;;;;;-1.22;100.00;99294.47;5031744;28;20056;-80
2023/01/19 00:47:23;;;;;;;22.30;12.48;;;;;;;-1.62;100.00;99234.56;5035174;28;20165;-80
2023/01/19 00:49:50;;;;;;;22.35;12.68;;;;;;;-1.71;100.00;99226.91;5041802;28;20045;-80
2023/01/19 00:52:17;;;;;;;24.98;12.02;;;;;;;-1.08;100.00;99326.25;5040661;28;20516;-79
2023/01/19 00:54:44;;;;;;;24.83;11.52;;;;;;;-1.41;100.00;99278.34;5040705;28;20056;-79
2023/01/19 00:57:11;;;;;;;18.65;11.45;;;;;;;-1.08;100.00;99332.31;5038572;28;20044;-80
2023/01/19 00:59:37;;;;;;;20.35;11.32;;;;;;;-1.39;100.00;99273.13;5034613;28;20068;-81
2023/01/19 01:02:04;;;;;;;19.65;11.27;;;;;;;-1.06;100.00;99335.75;5033849;28;20045;-81
2023/01/19 01:04:31;;;;;;;20.00;11.60;;;;;;;-1.50;100.00;99278.50;5034338;28;20049;-80
2023/01/19 01:06:57;;;;;;;20.63;11.02;;;;;;;-1.32;100.00;99332.75;5035368;28;20132;-82
2023/01/19 01:09:24;;;;;;;21.33;11.40;;;;;;;-1.45;100.00;99323.44;5031316;28;20049;-79
2023/01/19 01:11:50;;;;;;;17.42;10.57;;;;;;;-1.47;100.00;99330.38;5034389;28;20053;-81
2023/01/19 01:14:18;;;;;;;22.05;12.30;;;;;;;-1.60;100.00;99314.16;5034440;28;20144;-81
2023/01/19 01:16:44;;;;;;;20.73;11.73;;;;;;;-1.43;100.00;99347.63;5033871;28;20101;-83
2023/01/19 01:19:11;;;;;;;21.88;11.70;;;;;;;-1.43;100.00;99347.63;5034529;28;20061;-81
2023/01/19 01:21:38;;;;;;;21.73;12.10;;;;;;;-1.57;100.00;99339.16;5035820;28;20080;-81
2023/01/19 01:24:04;;;;;;;20.48;12.05;;;;;;;-1.79;100.00;99298.00;5034087;28;20494;-81
2023/01/19 01:26:31;;;;;;;21.17;12.77;;;;;;;-1.65;100.00;99333.25;5034434;28;20064;-82
2023/01/19 01:28:57;;;;;;;22.15;12.07;;;;;;;-1.56;100.00;99356.47;5035106;28;20454;-80
2023/01/19 01:31:24;;;;;;;27.60;12.43;;;;;;;-1.57;100.00;99350.41;5033748;28;20041;-81
2023/01/19 01:33:51;;;;;;;20.70;12.05;;;;;;;-1.64;100.00;99347.94;5035100;28;20045;-82
2023/01/19 01:36:20;;;;;;;23.10;12.02;;;;;;;-1.61;100.00;99359.16;5033481;28;20128;-82
2023/01/19 01:38:47;;;;;;;21.77;12.20;;;;;;;-1.64;100.00;99358.34;5032836;28;20124;-82
2023/01/19 01:41:13;;;;;;;24.15;12.23;;;;;;;-2.05;100.00;99307.88;5032860;28;20140;-82
2023/01/19 01:43:52;;;;;;;24.88;12.60;;;;;;;-1.67;100.00;99361.81;5033785;28;20068;-81
2023/01/19 01:46:19;;;;;;;22.52;12.80;;;;;;;-2.07;100.00;99303.59;5024854;28;20053;-79
2023/01/19 01:48:52;;;;;;;22.13;12.43;;;;;;;-1.83;100.00;99350.81;5012220;28;20068;-81
2023/01/19 01:51:28;;;;;;;25.92;12.60;;;;;;;-1.76;100.00;99364.56;5012123;28;20045;-81
2023/01/19 01:54:05;;;;;;;22.38;12.02;;;;;;;-1.77;100.00;99362.84;5012108;28;20055;-81
2023/01/19 01:56:36;;;;;;;28.35;13.02;;;;;;;-1.85;100.00;99352.56;5012510;28;20046;-82
2023/01/19 01:59:07;;;;;;;20.77;12.00;;;;;;;-2.11;100.00;99310.56;5009045;28;20413;-82
2023/01/19 02:04:21;;;;;;;22.55;11.60;;;;;;;-1.79;100.00;99355.06;5014684;28;19917;-81
2023/01/19 02:15:19;;;;;;;25.90;12.40;;;;;;;-1.57;100.00;99354.75;5015815;28;20591;-81
2023/01/19 02:17:46;;;;;;;21.73;12.40;;;;;;;-1.83;100.00;99311.88;5017884;28;20034;-82
2023/01/19 02:20:13;;;;;;;24.40;12.45;;;;;;;-2.03;100.00;99298.31;5018903;28;20045;-82
2023/01/19 02:22:48;;;;;;;22.48;13.15;;;;;;;-2.03;100.00;99313.03;5019026;28;20099;-82
2023/01/19 02:25:18;;;;;;;22.05;12.85;;;;;;;-1.86;100.00;99363.81;5018022;28;20145;-83
2023/01/19 02:27:45;;;;;;;26.13;13.10;;;;;;;-2.00;100.00;99342.38;5019500;28;20048;-82
2023/01/19 02:30:13;;;;;;;23.02;12.93;;;;;;;-1.87;100.00;99366.41;5019383;28;20057;-82
2023/01/19 02:32:39;;;;;;;23.55;13.30;;;;;;;-1.81;100.00;99380.19;5018724;28;20112;-81
2023/01/19 02:35:06;;;;;;;24.40;13.95;;;;;;;-2.14;100.00;99327.00;5018822;28;20073;-81
2023/01/19 02:37:36;;;;;;;23.42;12.55;;;;;;;-1.81;100.00;99376.72;5018498;28;20038;-80
2023/01/19 02:40:07;;;;;;;23.52;12.52;;;;;;;-1.97;100.00;99344.94;5014065;28;20060;-81
2023/01/19 02:42:56;;;;;;;20.70;11.98;;;;;;;-2.56;100.00;99227.31;5008573;28;20052;-82
2023/01/19 02:45:24;;;;;;;19.83;11.45;;;;;;;-2.17;100.00;99293.31;5017461;28;20057;-81
2023/01/19 02:47:51;;;;;;;21.20;12.38;;;;;;;-1.64;100.00;99373.91;5021870;28;20379;-79
2023/01/19 02:50:40;;;;;;;21.08;12.15;;;;;;;-1.56;100.00;99366.84;5026084;28;20077;-81
2023/01/19 02:53:16;;;;;;;22.40;12.50;;;;;;;-1.60;100.00;99360.00;5022832;28;20042;-80
2023/01/19 02:55:52;;;;;;;20.15;12.48;;;;;;;-1.74;100.00;99325.63;5024932;28;20061;-80
2023/01/19 02:58:53;;;;;;;20.48;12.43;;;;;;;-1.44;100.00;99358.91;5026626;28;20117;-81
2023/01/19 03:01:33;;;;;;;21.98;11.98;;;;;;;-2.03;100.00;99248.16;5027331;28;20073;-82
2023/01/19 03:04:15;;;;;;;21.75;11.75;;;;;;;-1.44;100.00;99331.19;5019142;28;20058;-81
2023/01/19 03:06:59;;;;;;;22.63;12.00;;;;;;;-1.27;100.00;99353.44;5017872;28;20070;-80
2023/01/19 03:09:40;;;;;;;23.33;12.30;;;;;;;-1.23;100.00;99347.31;5018386;28;20034;-80
2023/01/19 03:12:29;;;;;;;18.52;11.63;;;;;;;-1.39;100.00;99323.31;4998510;28;20131;-82
2023/01/19 03:15:02;;;;;;;21.58;11.77;;;;;;;-2.34;100.00;99149.22;5014755;28;20270;-82
2023/01/19 03:17:30;;;;;;;19.40;11.55;;;;;;;-2.26;100.00;99139.63;5013543;28;20054;-82
2023/01/19 03:19:57;;;;;;;23.65;12.00;;;;;;;-2.02;100.00;99180.72;5014247;28;20053;-82
2023/01/19 03:22:28;;;;;;;21.25;12.40;;;;;;;-1.36;100.00;99294.72;5013843;28;20145;-82
2023/01/19 03:24:58;;;;;;;;;;;;;;;-1.09;100.00;99322.81;5015060;28;20045;-83
2023/01/19 03:27:28;;;;;;;22.17;11.63;;;;;;;-2.22;100.00;99144.75;5012322;28;19917;-80
2023/01/19 03:29:59;;;;;;;22.75;12.23;;;;;;;-2.11;100.00;99149.75;5013765;28;20064;-81
2023/01/19 03:32:40;;;;;;;22.42;11.90;;;;;;;-1.33;100.00;99278.22;5013291;28;20073;-81
2023/01/19 03:35:12;;;;;;;20.67;11.95;;;;;;;-1.37;100.00;99289.53;5013196;28;20053;-82
2023/01/19 03:37:43;;;;;;;24.70;13.10;;;;;;;-1.12;100.00;99333.28;5015555;28;20048;-81
2023/01/19 03:40:10;;;;;;;20.75;12.80;;;;;;;-1.26;100.00;99324.81;5016217;28;20048;-80
2023/01/19 03:42:39;;;;;;;22.17;12.60;;;;;;;-1.23;100.00;99324.78;5017788;28;20057;-80
2023/01/19 03:45:07;;;;;;;20.75;12.32;;;;;;;-1.32;100.00;99309.38;5021345;28;20053;-83
2023/01/19 03:47:35;;;;;;;20.85;12.40;;;;;;;-1.36;100.00;99301.63;5019306;28;20589;-80
2023/01/19 03:50:04;;;;;;;21.65;11.70;;;;;;;-1.07;100.00;99352.22;5039598;28;20049;-80
2023/01/19 03:52:32;;;;;;;19.13;12.48;;;;;;;-1.37;100.00;99300.78;5036596;28;20090;-81
2023/01/19 03:55:00;;;;;;;23.00;12.85;;;;;;;-1.02;100.00;99343.50;5038195;28;20139;-80
2023/01/19 03:57:27;;;;;;;23.60;12.88;;;;;;;-1.01;100.00;99351.28;5038599;28;20049;-80
2023/01/19 03:59:54;;;;;;;20.67;12.65;;;;;;;-1.15;100.00;99324.66;5037740;28;20089;-81
2023/01/19 04:02:22;;;;;;;22.40;12.82;;;;;;;-1.31;100.00;99313.69;5037244;28;20163;-81
2023/01/19 04:04:49;;;;;;;20.23;12.88;;;;;;;-1.32;100.00;99309.38;5037223;28;20046;-81
2023/01/19 04:07:16;;;;;;;21.10;13.30;;;;;;;-0.99;100.00;99357.31;5036167;28;20057;-80
2023/01/19 04:09:42;;;;;;;21.95;12.63;;;;;;;-1.02;100.00;99353.91;5036566;28;20067;-81
2023/01/19 04:12:09;;;;;;;22.42;13.00;;;;;;;-1.24;100.00;99333.47;5039906;28;20045;-79
2023/01/19 04:14:36;;;;;;;25.35;14.25;;;;;;;-1.62;100.00;99281.31;5039789;28;20051;-80
2023/01/19 04:17:02;;;;;;;25.92;13.10;;;;;;;-1.66;100.00;99274.44;5039610;28;20212;-80
2023/01/19 04:19:29;;;;;;;26.65;13.82;;;;;;;-1.67;100.00;99280.50;5038504;28;20061;-81
2023/01/19 04:21:55;;;;;;;25.25;13.02;;;;;;;-2.02;100.00;99224.81;5036920;28;20045;-83
2023/01/19 04:24:22;;;;;;;21.90;14.10;;;;;;;-1.20;100.00;99363.69;5036509;28;20049;-84
2023/01/19 04:26:50;;;;;;;25.45;13.98;;;;;;;-1.72;100.00;99271.91;5037235;28;20057;-82
2023/01/19 04:29:17;;;;;;;24.23;13.35;;;;;;;-2.70;100.00;99109.19;5039817;28;20037;-81
2023/01/19 04:31:43;;;;;;;24.42;13.05;;;;;;;-1.24;100.00;99346.44;5039797;28;20044;-81
2023/01/19 04:34:10;;;;;;;22.65;13.57;;;;;;;-1.92;100.00;99207.38;5040727;28;20055;-81
2023/01/19 04:36:36;;;;;;;23.70;14.18;;;;;;;-0.93;100.00;99375.38;5041928;28;20476;-81
2023/01/19 04:39:03;;;;;;;22.20;12.73;;;;;;;-1.57;100.00;99272.53;5042844;28;20052;-81
2023/01/19 04:41:30;;;;;;;24.42;14.10;;;;;;;-1.30;100.00;99309.34;5040854;28;20060;-80
2023/01/19 04:43:57;;;;;;;23.27;13.68;;;;;;;-1.09;100.00;99332.34;5041825;28;20060;-79
2023/01/19 04:46:23;;;;;;;24.38;13.88;;;;;;;-1.84;100.00;99216.75;5042938;28;20049;-81
2023/01/19 04:48:50;;;;;;;24.30;14.20;;;;;;;-1.40;100.00;99277.47;5045014;28;20104;-81
2023/01/19 04:51:17;;;;;;;22.00;13.90;;;;;;;-0.86;100.00;99351.00;5043635;28;20056;-81
2023/01/19 04:53:43;;;;;;;26.00;15.43;;;;;;;-0.84;100.00;99345.78;5046184;28;20073;-79
2023/01/19 04:56:11;;;;;;;21.65;13.65;;;;;;;-1.08;100.00;99310.69;5033591;28;20049;-82
2023/01/19 04:58:37;;;;;;;23.50;14.27;;;;;;;-0.84;100.00;99345.78;5051813;28;20088;-80
2023/01/19 05:01:08;;;;;;;24.95;14.25;;;;;;;-1.14;100.00;99293.47;5051925;28;20045;-80
2023/01/19 05:03:35;;;;;;;26.50;14.45;;;;;;;-0.82;100.00;99351.81;5052409;28;20086;-80
2023/01/19 05:06:01;;;;;;;27.05;15.05;;;;;;;-0.85;100.00;99351.88;5051663;28;20040;-79
2023/01/19 05:08:28;;;;;;;24.95;14.23;;;;;;;-0.67;100.00;99361.09;5036887;28;20386;-82
2023/01/19 05:10:56;;;;;;;25.83;14.80;;;;;;;-0.60;100.00;99347.94;5034965;28;20517;-81
2023/01/19 05:13:22;;;;;;;23.65;14.57;;;;;;;-0.71;100.00;99326.47;5034257;28;20105;-80
2023/01/19 05:15:49;;;;;;;27.73;15.68;;;;;;;-0.71;100.00;99339.47;5034396;28;20080;-82
2023/01/19 05:18:16;;;;;;;25.63;16.00;;;;;;;-0.58;100.00;99366.09;5035385;28;20458;-82
2023/01/19 05:20:42;;;;;;;25.63;15.55;;;;;;;-1.31;100.00;99258.28;5036800;28;20037;-81
2023/01/19 05:23:09;;;;;;;26.13;15.80;;;;;;;-0.68;100.00;99360.22;5040072;28;20049;-81
2023/01/19 05:25:35;;;;;;;26.55;15.30;;;;;;;-0.75;100.00;99361.19;5034330;28;20065;-81
2023/01/19 05:28:02;;;;;;;30.40;15.95;;;;;;;-1.16;100.00;99281.41;5034076;28;20070;-81
2023/01/19 05:30:29;;;;;;;26.08;16.13;;;;;;;-1.03;100.00;99289.81;5033341;28;20057;-81
2023/01/19 05:32:55;;;;;;;29.38;16.33;;;;;;;-0.42;100.00;99373.59;5033529;28;20156;-81
2023/01/19 05:35:22;;;;;;;26.40;15.85;;;;;;;-0.88;100.00;99289.53;5015149;28;20060;-81
2023/01/19 05:38:01;;;;;;;27.90;15.80;;;;;;;-1.08;100.00;99231.00;5041882;28;20049;-81
2023/01/19 05:40:27;;;;;;;29.08;16.08;;;;;;;-0.36;100.00;99342.28;5041938;28;20109;-82
2023/01/19 05:42:54;;;;;;;27.02;16.40;;;;;;;-0.51;100.00;99324.38;5035521;28;20409;-81
2023/01/19 05:45:20;;;;;;;29.88;16.83;;;;;;;-0.92;100.00;99265.34;5034459;28;20049;-80
2023/01/19 05:47:47;;;;;;;29.50;17.10;;;;;;;-0.83;100.00;99277.31;5029547;28;20148;-80
2023/01/19 05:50:14;;;;;;;31.52;16.80;;;;;;;-0.07;100.00;99393.72;5018041;28;20045;-80
2023/01/19 05:52:40;;;;;;;28.83;15.93;;;;;;;-0.68;100.00;99289.19;5030988;28;20056;-80
2023/01/19 05:55:07;;;;;;;28.05;16.70;;;;;;;-0.06;100.00;99387.63;5038566;28;20073;-81
2023/01/19 05:57:34;;;;;;;28.90;16.50;;;;;;;-0.05;100.00;99378.94;5037115;28;20057;-81
2023/01/19 06:00:01;;;;;;;30.27;16.73;;;;;;;0.16;100.00;99403.66;5034457;28;20091;-81
2023/01/19 06:02:28;;;;;;;29.90;16.38;;;;;;;-0.34;100.00;99324.03;5035001;28;20132;-80
2023/01/19 06:04:55;;;;;;;29.40;16.40;;;;;;;0.17;100.00;99415.78;5037908;28;20061;-80
2023/01/19 06:07:22;;;;;;;27.92;16.65;;;;;;;0.08;100.00;99417.72;5041040;28;20045;-80
2023/01/19 06:09:50;;;;;;;27.05;15.90;;;;;;;-0.14;100.00;99383.44;5040836;28;20042;-81
2023/01/19 06:12:17;;;;;;;31.70;17.30;;;;;;;-0.21;100.00;99381.88;5035837;28;20558;-79
2023/01/19 06:14:43;;;;;;;33.67;17.23;;;;;;;-0.65;100.00;99325.53;5035030;28;20056;-81
2023/01/19 06:17:10;;;;;;;27.25;16.88;;;;;;;-0.44;100.00;99372.75;5032549;28;20054;-81
2023/01/19 06:19:36;;;;;;;29.08;17.52;;;;;;;-0.77;100.00;99329.19;5033621;28;20048;-81
2023/01/19 06:22:03;;;;;;;30.88;17.98;;;;;;;-0.78;100.00;99340.47;5036135;28;20041;-80
2023/01/19 06:24:29;;;;;;;28.85;16.45;;;;;;;-1.02;100.00;99302.78;5040281;28;20049;-80
2023/01/19 06:26:56;;;;;;;30.77;18.10;;;;;;;-1.62;100.00;99227.66;5042488;28;20079;-82
2023/01/19 06:29:23;;;;;;;30.20;18.33;;;;;;;-0.95;100.00;99319.13;5024542;28;20037;-81
2023/01/19 06:31:49;;;;;;;32.65;19.02;;;;;;;-1.07;100.00;99302.84;5022777;28;20056;-82
2023/01/19 06:34:16;;;;;;;33.20;18.55;;;;;;;-0.37;100.00;99433.34;5039080;28;20500;-83
2023/01/19 06:36:42;;;;;;;31.30;18.20;;;;;;;-2.19;100.00;99130.84;5032375;28;20061;-82
2023/01/19 06:39:09;;;;;;;29.88;17.52;;;;;;;-0.37;100.00;99442.00;5041737;28;20037;-82
2023/01/19 06:41:36;;;;;;;29.60;17.35;;;;;;;-0.75;100.00;99362.06;5041459;28;20077;-80
2023/01/19 06:44:02;;;;;;;27.58;17.27;;;;;;;-1.11;100.00;99298.63;5043708;28;20049;-83
2023/01/19 06:46:29;;;;;;;31.10;18.05;;;;;;;-0.98;100.00;99319.19;5040309;28;20065;-80
2023/01/19 06:48:58;;;;;;;27.33;17.48;;;;;;;-1.14;100.00;99285.69;5040057;28;20140;-82
2023/01/19 06:51:26;;;;;;;29.95;17.80;;;;;;;-0.47;100.00;99397.94;5038345;28;20062;-80
2023/01/19 06:53:54;;;;;;;28.00;17.52;;;;;;;-0.45;100.00;99410.06;5032793;28;20100;-82
2023/01/19 06:56:21;;;;;;;31.10;17.55;;;;;;;-0.69;100.00;99362.84;5039005;28;20110;-83
2023/01/19 06:58:49;;;;;;;30.10;17.05;;;;;;;-0.52;100.00;99390.25;5038701;28;20045;-81
2023/01/19 07:01:15;;;;;;;28.83;16.80;;;;;;;-1.41;100.00;99247.19;5036585;28;20168;-82
2023/01/19 07:03:42;;;;;;;24.88;15.35;;;;;;;-0.51;100.00;99396.31;5035754;28;20148;-83
2023/01/19 07:06:11;;;;;;;27.67;16.42;;;;;;;-0.75;100.00;99358.59;5034206;28;20045;-81
2023/01/19 07:08:38;;;;;;;26.58;15.25;;;;;;;-0.36;100.00;99429.84;5033944;28;20133;-82
2023/01/19 07:11:07;;;;;;;28.42;15.57;;;;;;;-0.41;100.00;99414.31;5039758;28;20053;-82
2023/01/19 07:13:54;;;;;;;29.55;14.85;;;;;;;-0.50;100.00;99408.44;5035941;28;20053;-83
2023/01/19 07:16:21;;;;;;;26.80;15.55;;;;;;;-0.31;100.00;99437.53;5040792;28;20124;-82
2023/01/19 07:18:48;;;;;;;26.13;15.23;;;;;;;-1.38;100.00;99256.66;5040317;28;20041;-81
2023/01/19 07:21:15;;;;;;;30.35;16.13;;;;;;;-1.27;100.00;99294.56;5040778;28;20417;-82
2023/01/19 07:23:42;;;;;;;25.58;14.60;;;;;;;-1.69;100.00;99213.03;5036094;28;20041;-81
2023/01/19 07:26:09;;;;;;;31.02;17.08;;;;;;;-1.18;100.00;99297.00;5036867;28;20049;-81
2023/01/19 07:28:36;;;;;;;27.17;16.38;;;;;;;-1.26;100.00;99277.25;5037370;28;20067;-81
2023/01/19 07:31:02;;;;;;;31.27;15.95;;;;;;;-1.92;100.00;99165.88;5040929;28;20050;-82
2023/01/19 07:33:29;;;;;;;28.35;15.85;;;;;;;-0.18;100.00;99455.53;5039149;28;20061;-82
2023/01/19 07:35:56;;;;;;;25.75;15.63;;;;;;;-0.64;100.00;99376.63;5023759;28;20056;-83
2023/01/19 07:38:23;;;;;;;27.15;15.75;;;;;;;-0.31;100.00;99427.13;5042476;28;20121;-80
2023/01/19 07:40:49;;;;;;;29.65;16.42;;;;;;;-0.06;100.00;99454.44;5041733;28;20056;-82
2023/01/19 07:43:16;;;;;;;26.23;16.00;;;;;;;-0.06;100.00;99446.63;5041130;28;20064;-82
2023/01/19 07:45:43;;;;;;;25.23;15.48;;;;;;;-0.14;100.00;99438.09;5040149;28;20132;-81
2023/01/19 07:48:10;;;;;;;27.73;16.17;;;;;;;0.05;100.00;99456.81;5038053;28;20053;-84
2023/01/19 07:50:37;;;;;;;28.20;15.98;;;;;;;-0.22;100.00;99422.66;5039919;28;20061;-83
2023/01/19 07:53:08;;;;;;;25.50;15.68;;;;;;;0.22;100.00;99449.53;5038950;28;20052;-81
2023/01/19 07:55:34;;;;;;;;;;;;;;;0.37;100.00;99453.56;5043400;28;20060;-82
2023/01/19 07:58:05;;;;;;;30.13;15.10;;;;;;;0.32;100.00;99454.50;5043731;28;19928;-81
2023/01/19 08:00:34;;;;;;;25.98;14.93;;;;;;;-0.15;100.00;99358.31;5042873;28;20045;-82
2023/01/19 08:03:02;;;;;;;31.02;15.65;;;;;;;-0.65;100.00;99281.31;5039620;28;20060;-83
2023/01/19 08:05:32;;;;;;;31.17;16.80;;;;;;;-0.19;100.00;99359.28;5040173;28;20127;-82
2023/01/19 08:07:59;;;;;;;23.70;15.00;;;;;;;-1.22;100.00;99193.19;5040611;28;20050;-82
2023/01/19 08:10:27;;;;;;;28.70;16.45;;;;;;;-0.49;100.00;99329.53;5041328;28;20056;-81
2023/01/19 08:12:55;;;;;;;27.88;15.88;;;;;;;0.25;100.00;99446.88;5041422;28;20076;-82
2023/01/19 08:15:23;;;;;;;28.70;16.50;;;;;;;0.07;100.00;99403.00;5040796;28;20112;-81
2023/01/19 08:18:01;;;;;;;30.48;17.20;;;;;;;-0.32;100.00;99342.22;5037699;28;20052;-82
2023/01/19 08:20:28;;;;;;;28.65;16.63;;;;;;;0.34;100.00;99439.72;5042347;28;20133;-81
2023/01/19 08:22:58;;;;;;;26.17;16.02;;;;;;;0.46;100.00;99445.59;5042675;28;20056;-80
2023/01/19 08:25:31;;;;;;;26.83;16.88;;;;;;;0.04;100.00;99362.25;5044887;28;20084;-80
2023/01/19 08:27:57;;;;;;;25.08;15.48;;;;;;;-1.16;100.00;99139.38;5055297;28;20045;-80
2023/01/19 08:30:25;;;;;;;25.30;15.05;;;;;;;-0.55;100.00;99210.91;5053754;28;20033;-81
2023/01/19 08:33:02;;;;;;;27.00;15.38;;;;;;;0.73;100.00;99400.69;5052496;28;20057;-81
2023/01/19 08:35:30;;;;;;;28.02;15.55;;;;;;;0.83;100.00;99417.81;5049124;28;20060;-80
2023/01/19 08:38:00;;;;;;;29.10;15.43;;;;;;;1.13;100.00;99444.03;5045729;28;20055;-82
2023/01/19 08:40:34;;;;;;;23.92;15.02;;;;;;;1.22;100.00;99457.72;5029212;28;20477;-83
2023/01/19 08:43:06;;;;;;;24.83;15.05;;;;;;;1.18;100.00;99453.47;5045771;28;20113;-82
2023/01/19 08:45:40;;;;;;;24.95;15.95;;;;;;;1.15;100.00;99450.06;5046165;28;20041;-82
2023/01/19 08:48:07;;;;;;;23.08;14.00;;;;;;;0.90;100.00;99392.47;5051802;28;20113;-80
2023/01/19 08:50:33;;;;;;;24.58;14.55;;;;;;;1.21;100.00;99405.59;5038642;28;20046;-81
2023/01/19 08:53:04;;;;;;;26.27;14.90;;;;;;;1.45;100.00;99418.03;5037921;28;20156;-81
2023/01/19 08:55:35;;;;;;;22.70;14.05;;;;;;;1.88;100.00;99458.66;5040605;28;20053;-84
2023/01/19 08:58:04;;;;;;;22.85;14.02;;;;;;;1.99;100.00;99454.88;5023530;28;20645;-81
2023/01/19 09:00:33;;;;;;;22.98;14.20;;;;;;;1.87;100.00;99452.59;5040166;28;20109;-82
2023/01/19 09:03:01;;;;;;;22.52;14.55;;;;;;;1.54;100.00;99388.25;5044078;28;20121;-80
2023/01/19 09:05:37;;;;;;;24.35;14.32;;;;;;;1.97;100.00;99447.97;5041970;28;20370;-81
2023/01/19 09:08:11;;;;;;;20.20;13.65;;;;;;;1.97;100.00;99448.81;5044393;28;20100;-82
2023/01/19 09:10:42;;;;;;;20.58;13.25;;;;;;;2.11;100.00;99464.97;5039371;28;20048;-81
2023/01/19 09:13:10;;;;;;;21.40;13.90;;;;;;;2.01;100.00;99481.78;5034371;28;20113;-79
2023/01/19 09:15:38;;;;;;;27.67;14.65;;;;;;;1.87;100.00;99472.63;5039236;28;20046;-82
2023/01/19 09:18:09;;;;;;;24.55;15.45;;;;;;;1.41;100.00;99403.38;5040341;28;20131;-83
2023/01/19 09:20:37;;;;;;;24.10;14.45;;;;;;;1.83;100.00;99464.00;5040072;28;20030;-82
2023/01/19 09:23:05;;;;;;;22.17;13.95;;;;;;;1.42;100.00;99382.44;5040272;28;20099;-82
2023/01/19 09:25:31;;;;;;;21.15;14.27;;;;;;;2.17;100.00;99503.13;5041630;28;20049;-81
2023/01/19 09:27:59;;;;;;;22.08;13.93;;;;;;;2.15;100.00;99470.13;5041882;28;20045;-82
2023/01/19 09:30:26;;;;;;;26.33;14.35;;;;;;;2.33;100.00;99470.47;5042636;28;20034;-83
2023/01/19 09:32:53;;;;;;;22.80;14.27;;;;;;;2.30;100.00;99446.19;5040269;28;20080;-83
2023/01/19 09:35:20;;;;;;;20.88;14.20;;;;;;;2.58;100.00;99457.53;5045536;28;20482;-83
2023/01/19 09:37:47;;;;;;;23.35;13.90;;;;;;;2.95;100.00;99478.22;5042926;28;20041;-81
2023/01/19 09:40:16;;;;;;;21.30;14.00;;;;;;;2.81;100.00;99428.09;5032258;28;20057;-82
2023/01/19 09:43:15;;;;;;;25.63;14.02;;;;;;;3.11;100.00;99458.53;5037401;28;20056;-80
2023/01/19 09:45:57;;;;;;;20.52;13.52;;;;;;;2.86;100.00;99422.69;5004186;28;20049;-82
2023/01/19 09:48:31;;;;;;;20.63;13.68;;;;;;;3.30;100.00;99484.97;5037999;28;20081;-81
2023/01/19 09:51:02;;;;;;;23.35;13.88;;;;;;;3.20;100.00;99446.03;5038463;28;20056;-84
2023/01/19 09:53:35;;;;;;;20.20;13.55;;;;;;;3.37;100.00;99481.22;5037881;28;20500;-80
2023/01/19 09:56:02;;;;;;;22.67;13.50;;;;;;;3.09;100.00;99473.41;5040272;28;20195;-83
2023/01/19 09:58:28;;;;;;;22.30;14.18;;;;;;;2.90;100.00;99460.94;5042220;28;20073;-83
2023/01/19 10:01:07;;;;;;;21.55;13.95;;;;;;;3.03;100.00;99475.34;5040791;28;20056;-83
2023/01/19 10:03:40;;;;;;;22.45;14.35;;;;;;;2.95;100.00;99477.34;5041604;28;20108;-82
2023/01/19 10:06:10;;;;;;;22.77;14.18;;;;;;;3.08;100.00;99442.06;5033794;28;20045;-82
2023/01/19 10:08:45;;;;;;;;;;;;;;;3.55;100.00;99484.16;5041970;28;20049;-81
2023/01/19 10:11:27;;;;;;;21.25;12.70;;;;;;;3.23;100.00;99452.03;5035407;28;19917;-83
2023/01/19 10:14:20;;;;;;;23.27;14.25;;;;;;;2.62;100.00;99377.28;5039897;28;20124;-81
2023/01/19 10:17:09;;;;;;;20.55;13.38;;;;;;;3.20;100.00;99482.66;5039152;28;20061;-82
2023/01/19 10:19:40;;;;;;;21.75;13.48;;;;;;;3.29;100.00;99474.53;5034160;28;20402;-82
2023/01/19 10:22:19;;;;;;;23.45;13.65;;;;;;;2.80;100.00;99376.72;5037217;28;20046;-80
2023/01/19 10:24:51;;;;;;;21.75;14.00;;;;;;;2.70;100.00;99356.97;5037151;28;20049;-82
2023/01/19 10:27:23;;;;;;;21.33;13.85;;;;;;;2.36;100.00;99299.72;5037923;28;20425;-82
2023/01/19 10:29:50;;;;;;;21.20;13.65;;;;;;;2.97;100.00;99446.78;5037335;28;20050;-83
2023/01/19 10:32:21;;;;;;;21.08;13.43;;;;;;;1.55;100.00;99231.66;5038037;28;20045;-82
2023/01/19 10:34:49;;;;;;;21.13;13.70;;;;;;;2.10;100.00;99382.31;5035419;28;20140;-82
2023/01/19 10:37:26;;;;;;;24.05;13.93;;;;;;;1.51;100.00;99290.03;5036245;28;20073;-83
2023/01/19 10:39:55;;;;;;;22.30;13.63;;;;;;;2.30;100.00;99441.81;5034932;28;20067;-83
2023/01/19 10:42:22;;;;;;;23.27;14.13;;;;;;;2.42;100.00;99454.50;5035688;28;20129;-80
2023/01/19 10:44:49;;;;;;;23.52;14.18;;;;;;;1.81;100.00;99358.78;5035587;28;20053;-82
2023/01/19 10:47:23;;;;;;;23.48;13.80;;;;;;;2.47;100.00;99481.38;5037108;28;20053;-81
2023/01/19 10:49:50;;;;;;;26.23;14.00;;;;;;;2.35;100.00;99455.59;5036295;28;20060;-82
2023/01/19 10:52:34;;;;;;;19.73;11.82;;;;;;;2.60;100.00;99483.63;5038367;28;20048;-84
2023/01/19 10:55:02;;;;;;;19.20;12.70;;;;;;;2.40;100.00;99452.84;5031235;28;20140;-81
2023/01/19 10:57:35;;;;;;;19.77;11.85;;;;;;;2.07;100.00;99410.25;5037286;28;20053;-80
2023/01/19 11:00:04;;;;;;;25.27;12.63;;;;;;;2.23;100.00;99448.09;5030329;28;20454;-82
2023/01/19 11:02:32;;;;;;;19.20;12.20;;;;;;;1.63;100.00;99354.91;5029510;28;20077;-83
2023/01/19 11:05:30;;;;;;;16.65;11.57;;;;;;;2.46;100.00;99482.28;5036164;28;20045;-81
2023/01/19 11:07:57;;;;;;;17.33;11.68;;;;;;;2.48;100.00;99492.69;5021625;28;20120;-81
2023/01/19 11:10:28;;;;;;;18.48;10.57;;;;;;;2.23;100.00;99444.63;5041287;28;20105;-82
2023/01/19 11:13:15;;;;;;;16.83;10.10;;;;;;;2.43;100.00;99484.97;5040182;28;20564;-81
2023/01/19 11:15:43;;;;;;;12.13;8.60;;;;;;;2.18;100.00;99449.16;5039316;28;20053;-82
2023/01/19 11:18:42;;;;;;;12.27;7.82;;;;;;;2.51;100.00;99502.19;5041818;28;20041;-83
2023/01/19 11:21:13;;;;;;;13.55;8.43;;;;;;;2.28;100.00;99476.72;4993395;28;20045;-82
2023/01/19 11:23:49;;;;;;;13.80;9.05;;;;;;;2.01;100.00;99428.72;5043037;28;20117;-83
2023/01/19 11:26:38;;;;;;;11.85;8.65;;;;;;;2.50;100.00;99492.66;5042743;28;20071;-83
2023/01/19 11:29:05;;;;;;;15.82;8.70;;;;;;;2.08;100.00;99435.47;5039316;28;20139;-82
2023/01/19 11:31:34;;;;;;;12.60;8.32;;;;;;;1.99;100.00;99402.66;5043039;28;20042;-81
2023/01/19 11:34:20;;;;;;;15.18;8.63;;;;;;;2.16;100.00;99385.66;5046733;28;20076;-83
2023/01/19 11:37:17;;;;;;;12.15;8.27;;;;;;;2.69;100.00;99478.13;5043653;28;20049;-82